Time;durP1;ratioP1;P1;durP2;ratioP2;P2;SDS_P1;SDS_P2;PMS_P1;PMS_P2;Temp;Humidity;BMP_temperature;BMP_pressure;BME280_temperature;BME280_humidity;BME280_pressure;Samples;Min_cycle;Max_cycle;Signal;HPM_P1;HPM_P2
2022/10/10 00:02:12;;;;;;;15.50;7.60;;;;;;;3.27;100.00;100386.67;100851;1338;24447;-35
2022/10/10 00:04:38;;;;;;;11.00;6.40;;;;;;;3.27;100.00;100382.38;100753;1331;24291;-32
2022/10/10 00:07:03;;;;;;;25.80;11.60;;;;;;;3.28;100.00;100375.76;100794;1331;22893;-35
2022/10/10 00:09:29;;;;;;;28.40;16.90;;;;;;;3.28;100.00;100370.28;100752;1338;24491;-32
2022/10/10 00:11:55;;;;;;;22.60;6.90;;;;;;;3.30;100.00;100372.31;100717;1338;22709;-36
2022/10/10 00:14:21;;;;;;;17.10;7.50;;;;;;;3.30;100.00;100374.58;100772;1338;23054;-35
2022/10/10 00:16:47;;;;;;;9.90;5.80;;;;;;;3.30;100.00;100372.31;100822;1330;22892;-36
2022/10/10 00:19:12;;;;;;;8.80;5.10;;;;;;;3.29;100.00;100375.15;100842;1332;24359;-37
2022/10/10 00:21:38;;;;;;;12.30;5.40;;;;;;;3.29;100.00;100373.76;100753;1338;23063;-34
2022/10/10 00:24:04;;;;;;;13.10;7.20;;;;;;;3.28;100.00;100371.52;100724;1333;22875;-34
2022/10/10 00:26:29;;;;;;;8.60;4.10;;;;;;;3.25;100.00;100363.23;100801;1338;24258;-34
2022/10/10 00:28:55;;;;;;;10.30;6.10;;;;;;;3.24;100.00;100361.61;100782;1338;24489;-38
2022/10/10 00:31:20;;;;;;;6.60;5.40;;;;;;;3.22;100.00;100356.77;100831;1338;22524;-36
2022/10/10 00:33:46;;;;;;;55.90;22.50;;;;;;;3.22;100.00;100352.67;100795;1337;24385;-32
2022/10/10 00:36:12;;;;;;;93.30;57.50;;;;;;;3.21;100.00;100349.79;100763;1328;22898;-36
2022/10/10 00:38:37;;;;;;;121.40;56.70;;;;;;;3.22;100.00;100348.62;100754;1338;22872;-32
2022/10/10 00:41:03;;;;;;;103.30;62.70;;;;;;;3.22;100.00;100353.57;100732;1337;22748;-32
2022/10/10 00:43:29;;;;;;;47.10;33.10;;;;;;;3.22;100.00;100352.74;100887;1331;22801;-32
2022/10/10 00:45:55;;;;;;;40.10;24.40;;;;;;;3.19;100.00;100349.62;100766;1333;24359;-32
2022/10/10 00:48:24;;;;;;;98.60;58.90;;;;;;;3.17;100.00;100346.40;100831;1331;22546;-32
2022/10/10 00:50:53;;;;;;;159.20;82.70;;;;;;;3.17;100.00;100343.07;100814;1338;24484;-35
2022/10/10 00:53:21;;;;;;;17.20;8.90;;;;;;;3.15;100.00;100339.48;100922;1330;22713;-35
2022/10/10 00:55:47;;;;;;;12.50;7.00;;;;;;;3.13;100.00;100336.88;100835;1338;24384;-31
2022/10/10 00:58:13;;;;;;;56.40;26.10;;;;;;;3.10;100.00;100337.42;100784;1333;22750;-35
2022/10/10 01:00:38;;;;;;;324.10;220.40;;;;;;;3.12;100.00;100333.39;100766;1338;24492;-32
2022/10/10 01:03:04;;;;;;;54.50;29.00;;;;;;;3.19;100.00;100337.92;100789;1332;23103;-31
2022/10/10 01:05:30;;;;;;;405.30;198.00;;;;;;;3.25;100.00;100342.20;100822;1338;24361;-32
2022/10/10 01:07:55;;;;;;;60.10;35.20;;;;;;;3.34;100.00;100340.41;100819;1338;24379;-35
2022/10/10 01:10:21;;;;;;;69.70;49.00;;;;;;;3.40;100.00;100344.33;100779;1338;23336;-36
2022/10/10 01:12:55;;;;;;;48.10;30.40;;;;;;;3.43;100.00;100339.66;100807;1338;24438;-31
2022/10/10 01:15:22;;;;;;;;;;;;;;;3.41;100.00;100338.21;100896;1338;22479;-39
2022/10/10 01:17:55;;;;;;;14.00;7.40;;;;;;;3.38;100.00;100336.73;100802;1329;24503;-33
2022/10/10 01:20:25;;;;;;;21.60;8.90;;;;;;;3.34;100.00;100336.73;100762;1338;25243;-34
2022/10/10 01:22:59;;;;;;;7.80;5.30;;;;;;;3.28;100.00;100328.52;100869;1330;22497;-32
2022/10/10 01:25:28;;;;;;;13.60;7.70;;;;;;;3.20;100.00;100320.84;100696;1315;23129;-30
2022/10/10 01:27:58;;;;;;;14.80;7.70;;;;;;;3.15;100.00;100318.30;100850;1338;25590;-30
2022/10/10 01:30:24;;;;;;;26.40;8.20;;;;;;;3.13;100.00;100316.46;100827;1333;22498;-32
2022/10/10 01:32:53;;;;;;;15.90;7.50;;;;;;;3.10;100.00;100313.90;100763;1338;24364;-30
2022/10/10 01:35:24;;;;;;;10.80;6.80;;;;;;;3.09;100.00;100317.69;100740;1340;24494;-36
2022/10/10 01:37:54;;;;;;;13.70;6.80;;;;;;;3.07;100.00;100317.86;100874;1338;22499;-37
2022/10/10 01:40:26;;;;;;;18.20;5.70;;;;;;;3.05;100.00;100313.43;100857;1338;22808;-31
2022/10/10 01:42:53;;;;;;;11.40;6.20;;;;;;;3.04;100.00;100305.35;100829;1325;22632;-32
2022/10/10 01:45:19;;;;;;;19.30;9.00;;;;;;;3.06;100.00;100305.24;100771;1339;24369;-36
2022/10/10 01:47:46;;;;;;;16.30;9.40;;;;;;;3.10;100.00;100300.48;100733;1338;22887;-35
2022/10/10 01:50:15;;;;;;;10.70;7.90;;;;;;;3.14;100.00;100301.68;100814;1338;23204;-31
2022/10/10 01:52:42;;;;;;;12.70;6.50;;;;;;;3.17;100.00;100302.17;100829;1338;24382;-35
2022/10/10 01:55:26;;;;;;;15.20;7.80;;;;;;;3.18;100.00;100303.52;100786;1338;23324;-35
2022/10/10 01:57:56;;;;;;;13.60;7.90;;;;;;;3.18;100.00;100295.58;100740;1331;24354;-32
2022/10/10 02:00:22;;;;;;;19.00;13.30;;;;;;;3.21;100.00;100291.62;100819;1340;23261;-32
2022/10/10 02:02:51;;;;;;;11.30;7.00;;;;;;;3.23;100.00;100288.23;100766;1336;24397;-32
2022/10/10 02:05:24;;;;;;;18.10;7.40;;;;;;;3.23;100.00;100291.06;100800;1338;24387;-36
2022/10/10 02:07:57;;;;;;;16.50;12.40;;;;;;;3.22;100.00;100284.40;100774;1338;22538;-32
2022/10/10 02:10:25;;;;;;;40.50;34.20;;;;;;;3.24;100.00;100274.52;100815;1338;25363;-35
2022/10/10 02:12:51;;;;;;;23.90;15.70;;;;;;;3.28;100.00;100270.29;100760;1338;23210;-35
2022/10/10 02:15:20;;;;;;;19.60;14.80;;;;;;;3.35;100.00;100269.89;100768;1338;22749;-31
2022/10/10 02:17:47;;;;;;;80.30;48.20;;;;;;;3.39;100.00;100266.23;100894;1337;22504;-31
2022/10/10 02:20:12;;;;;;;39.00;23.30;;;;;;;3.40;100.00;100262.02;100767;1337;24343;-31
2022/10/10 02:22:39;;;;;;;30.70;19.60;;;;;;;3.39;100.00;100257.36;100738;1340;23219;-35
2022/10/10 02:25:05;;;;;;;42.30;29.00;;;;;;;3.38;100.00;100261.48;100811;1342;22514;-33
2022/10/10 02:27:36;;;;;;;36.80;26.00;;;;;;;3.35;100.00;100259.29;100786;1338;22504;-32
2022/10/10 02:30:03;;;;;;;48.60;33.70;;;;;;;3.29;100.00;100255.34;100823;1331;22746;-30
2022/10/10 02:32:31;;;;;;;31.70;21.80;;;;;;;3.23;100.00;100254.98;100712;1336;22705;-31
2022/10/10 02:34:59;;;;;;;15.40;8.50;;;;;;;3.17;100.00;100252.23;100830;1340;23131;-34
2022/10/10 02:37:25;;;;;;;14.50;10.30;;;;;;;3.12;100.00;100250.55;100789;1331;22500;-34
2022/10/10 02:39:53;;;;;;;22.30;13.20;;;;;;;3.07;100.00;100246.05;100776;1326;24270;-36
2022/10/10 02:42:20;;;;;;;24.20;10.40;;;;;;;3.01;100.00;100245.13;100784;1338;23191;-31
2022/10/10 02:44:45;;;;;;;31.40;12.40;;;;;;;2.94;100.00;100242.55;100773;1339;24446;-34
2022/10/10 02:47:11;;;;;;;21.80;12.90;;;;;;;2.86;100.00;100236.14;100876;1330;22569;-35
2022/10/10 02:49:37;;;;;;;10.80;7.00;;;;;;;2.80;100.00;100238.69;100794;1330;24380;-38
2022/10/10 02:52:02;;;;;;;9.70;7.20;;;;;;;2.73;100.00;100239.63;100877;1336;23053;-31
2022/10/10 02:54:28;;;;;;;12.60;8.20;;;;;;;2.68;100.00;100240.73;100750;1336;23100;-31
2022/10/10 02:56:53;;;;;;;12.40;7.60;;;;;;;2.63;100.00;100236.77;100798;1338;22759;-31
2022/10/10 02:59:19;;;;;;;10.30;6.20;;;;;;;2.58;100.00;100237.14;100804;1344;23097;-35
2022/10/10 03:01:45;;;;;;;21.80;7.30;;;;;;;2.59;100.00;100238.52;100765;1340;23309;-35
2022/10/10 03:04:10;;;;;;;13.60;8.70;;;;;;;2.56;100.00;100237.31;100810;1344;24428;-35
2022/10/10 03:06:36;;;;;;;19.30;11.40;;;;;;;2.54;100.00;100233.74;100737;1341;26617;-36
2022/10/10 03:09:02;;;;;;;18.60;10.90;;;;;;;2.59;100.00;100225.21;100751;1336;24427;-30
2022/10/10 03:11:28;;;;;;;25.40;14.30;;;;;;;2.65;100.00;100222.45;100859;1330;24878;-38
2022/10/10 03:13:53;;;;;;;32.40;17.80;;;;;;;2.68;100.00;100221.47;100765;1339;24347;-32
2022/10/10 03:16:19;;;;;;;42.20;32.60;;;;;;;2.74;100.00;100220.96;100698;1339;23103;-35
2022/10/10 03:18:45;;;;;;;41.90;27.70;;;;;;;2.79;100.00;100214.94;100850;1338;23122;-32
2022/10/10 03:21:11;;;;;;;20.90;14.70;;;;;;;2.85;100.00;100211.84;100527;1344;426383;-32
2022/10/10 03:23:36;;;;;;;25.00;18.90;;;;;;;2.88;100.00;100209.60;100845;1331;24300;-36
2022/10/10 03:26:02;;;;;;;19.50;11.10;;;;;;;2.91;100.00;100207.04;100801;1338;22750;-36
2022/10/10 03:28:28;;;;;;;14.20;8.90;;;;;;;2.94;100.00;100207.31;100746;1315;22509;-32
2022/10/10 03:30:54;;;;;;;25.60;14.40;;;;;;;2.95;100.00;100203.13;100821;1344;25476;-32
2022/10/10 03:33:19;;;;;;;18.90;13.30;;;;;;;2.98;100.00;100199.39;100768;1343;22873;-34
2022/10/10 03:35:45;;;;;;;21.10;9.10;;;;;;;3.00;100.00;100197.22;100790;1337;23242;-34
2022/10/10 03:38:11;;;;;;;10.20;7.90;;;;;;;3.02;100.00;100194.95;100899;1333;24410;-32
2022/10/10 03:40:39;;;;;;;9.00;6.20;;;;;;;3.04;100.00;100194.11;100827;1340;24485;-32
2022/10/10 03:43:06;;;;;;;14.60;5.80;;;;;;;3.04;100.00;100193.94;100744;1334;22762;-36
2022/10/10 03:45:31;;;;;;;19.70;6.90;;;;;;;3.01;100.00;100189.73;100796;1338;25422;-31
2022/10/10 03:47:57;;;;;;;14.40;8.00;;;;;;;3.00;100.00;100187.30;100777;1334;22490;-31
2022/10/10 03:50:22;;;;;;;12.60;8.30;;;;;;;2.99;100.00;100188.82;100849;1339;22864;-31
2022/10/10 03:52:48;;;;;;;13.90;7.60;;;;;;;2.97;100.00;100185.32;100820;1341;22711;-31
2022/10/10 03:55:14;;;;;;;12.20;8.90;;;;;;;2.94;100.00;100180.23;100798;1339;22851;-31
2022/10/10 03:57:39;;;;;;;8.40;5.40;;;;;;;2.93;100.00;100179.50;100759;1337;23216;-36
2022/10/10 04:00:06;;;;;;;10.00;6.30;;;;;;;2.90;100.00;100177.81;100738;1343;24484;-32
2022/10/10 04:02:31;;;;;;;11.60;8.10;;;;;;;2.88;100.00;100179.02;100747;1332;22500;-31
2022/10/10 04:04:57;;;;;;;6.50;5.40;;;;;;;2.87;100.00;100180.48;100894;1333;24446;-36
2022/10/10 04:07:22;;;;;;;9.00;7.10;;;;;;;2.89;100.00;100183.55;100716;1333;24588;-36
2022/10/10 04:09:48;;;;;;;9.20;4.40;;;;;;;2.90;100.00;100179.04;100802;1329;22860;-31
2022/10/10 04:12:13;;;;;;;8.80;4.70;;;;;;;2.91;100.00;100175.56;100728;1344;23113;-35
2022/10/10 04:14:39;;;;;;;13.40;6.00;;;;;;;2.96;100.00;100177.60;100666;1328;23244;-35
2022/10/10 04:17:04;;;;;;;9.20;5.40;;;;;;;3.04;100.00;100175.55;100814;1340;23453;-36
2022/10/10 04:19:31;;;;;;;16.80;6.30;;;;;;;3.14;100.00;100173.64;100760;1343;24369;-35
2022/10/10 04:21:56;;;;;;;16.90;6.50;;;;;;;3.23;100.00;100170.35;100910;1336;22761;-37
2022/10/10 04:24:22;;;;;;;16.90;8.10;;;;;;;3.37;100.00;100163.00;100765;1342;24460;-32
2022/10/10 04:26:47;;;;;;;7.40;6.00;;;;;;;3.55;100.00;100165.88;100769;1336;22722;-30
2022/10/10 04:29:13;;;;;;;10.90;7.10;;;;;;;3.73;100.00;100162.19;100776;1328;22718;-37
2022/10/10 04:31:38;;;;;;;12.00;5.60;;;;;;;3.90;100.00;100158.95;100760;1336;24740;-35
2022/10/10 04:34:04;;;;;;;12.20;7.20;;;;;;;4.04;100.00;100156.98;100806;1332;22738;-31
2022/10/10 04:36:29;;;;;;;9.60;5.90;;;;;;;4.15;100.00;100153.50;100825;1338;22878;-31
2022/10/10 04:38:55;;;;;;;11.30;7.70;;;;;;;4.26;100.00;100150.95;100703;1340;22873;-31
2022/10/10 04:41:20;;;;;;;8.70;4.90;;;;;;;4.34;100.00;100145.44;100797;1339;23041;-31
2022/10/10 04:43:46;;;;;;;15.30;7.70;;;;;;;4.39;100.00;100143.66;100884;1336;22761;-32
2022/10/10 04:46:11;;;;;;;6.90;5.00;;;;;;;4.43;100.00;100139.45;100816;1336;22863;-37
2022/10/10 04:48:37;;;;;;;8.30;5.40;;;;;;;4.45;100.00;100134.98;100798;1336;24452;-32
2022/10/10 04:51:02;;;;;;;25.50;7.60;;;;;;;4.47;100.00;100129.36;100773;1344;23217;-31
2022/10/10 04:53:28;;;;;;;11.30;6.90;;;;;;;4.48;100.00;100125.38;100793;1330;22963;-31
2022/10/10 04:55:53;;;;;;;12.60;6.40;;;;;;;4.50;100.00;100121.44;100716;1336;25397;-35
2022/10/10 04:58:19;;;;;;;8.30;5.30;;;;;;;4.55;100.00;100117.96;100738;1331;22750;-35
2022/10/10 05:00:51;;;;;;;12.00;7.40;;;;;;;4.56;100.00;100114.63;100787;1340;24827;-35
2022/10/10 05:03:17;;;;;;;17.90;6.80;;;;;;;4.59;100.00;100109.27;100763;1343;22873;-31
2022/10/10 05:05:42;;;;;;;11.00;7.40;;;;;;;4.61;100.00;100106.23;100746;1338;23239;-35
2022/10/10 05:08:08;;;;;;;11.40;7.50;;;;;;;4.63;100.00;100101.44;100747;1341;23215;-35
2022/10/10 05:10:37;;;;;;;14.30;5.80;;;;;;;4.63;100.00;100098.05;100828;1338;22519;-33
2022/10/10 05:13:03;;;;;;;18.10;7.40;;;;;;;4.64;100.00;100093.93;100817;1339;25382;-36
2022/10/10 05:15:29;;;;;;;12.10;7.00;;;;;;;4.64;100.00;100096.56;100878;1339;22929;-33
2022/10/10 05:17:54;;;;;;;19.60;8.20;;;;;;;4.65;100.00;100097.38;100792;1341;22869;-31
2022/10/10 05:20:20;;;;;;;9.70;5.70;;;;;;;4.68;100.00;100096.91;100814;1335;23066;-32
2022/10/10 05:22:46;;;;;;;8.20;6.40;;;;;;;4.72;100.00;100097.29;100767;1336;22761;-32
2022/10/10 05:25:11;;;;;;;9.80;7.60;;;;;;;4.73;100.00;100094.68;100793;1338;22846;-36
2022/10/10 05:27:37;;;;;;;22.00;6.80;;;;;;;4.76;100.00;100092.80;100745;1338;24477;-32
2022/10/10 05:30:04;;;;;;;18.60;8.20;;;;;;;4.80;100.00;100094.23;100720;1334;23104;-36
2022/10/10 05:32:29;;;;;;;17.00;7.60;;;;;;;4.87;100.00;100085.02;100698;1339;22760;-32
2022/10/10 05:34:55;;;;;;;13.70;7.40;;;;;;;4.96;100.00;100082.65;100808;1337;22634;-36
2022/10/10 05:37:20;;;;;;;16.30;7.00;;;;;;;5.02;100.00;100080.59;100739;1338;22869;-32
2022/10/10 05:39:47;;;;;;;9.50;4.70;;;;;;;5.07;100.00;100081.70;100788;1338;24357;-36
2022/10/10 05:42:13;;;;;;;13.60;5.90;;;;;;;5.17;100.00;100078.86;100861;1330;24566;-34
2022/10/10 05:44:38;;;;;;;10.70;5.90;;;;;;;5.25;100.00;100078.98;100783;1338;22520;-36
2022/10/10 05:47:04;;;;;;;8.00;4.70;;;;;;;5.31;100.00;100074.89;100735;1338;22761;-37
2022/10/10 05:49:29;;;;;;;11.40;6.30;;;;;;;5.35;100.00;100071.45;100763;1338;23093;-34
2022/10/10 05:51:55;;;;;;;12.50;6.20;;;;;;;5.43;100.00;100070.18;100741;1338;22509;-34
2022/10/10 05:54:21;;;;;;;13.20;5.70;;;;;;;5.51;100.00;100069.59;100726;1338;24936;-33
2022/10/10 05:56:47;;;;;;;5.40;4.00;;;;;;;5.61;100.00;100068.75;100746;1336;23125;-32
2022/10/10 05:59:14;;;;;;;9.00;5.00;;;;;;;5.71;100.00;100062.16;100561;1326;22739;-35
2022/10/10 06:01:40;;;;;;;9.10;3.90;;;;;;;5.78;100.00;100064.65;100764;1338;23090;-32
2022/10/10 06:04:08;;;;;;;14.10;5.70;;;;;;;5.82;100.00;100060.86;100757;1336;22546;-31
2022/10/10 06:06:33;;;;;;;7.10;4.30;;;;;;;5.88;100.00;100061.93;100791;1338;22892;-32
2022/10/10 06:08:59;;;;;;;10.80;6.20;;;;;;;5.93;100.00;100062.27;100765;1338;22758;-40
2022/10/10 06:11:25;;;;;;;9.90;6.60;;;;;;;5.99;100.00;100061.52;100767;1338;22517;-38
2022/10/10 06:13:53;;;;;;;78.10;19.10;;;;;;;6.05;100.00;100062.73;100753;1331;23362;-36
2022/10/10 06:16:20;;;;;;;27.80;13.40;;;;;;;6.11;100.00;100062.67;100919;1337;22737;-36
2022/10/10 06:18:46;;;;;;;16.40;10.40;;;;;;;6.19;100.00;100056.73;100779;1338;24310;-35
2022/10/10 06:21:14;;;;;;;13.50;6.30;;;;;;;6.27;100.00;100054.83;100797;1338;22750;-32
2022/10/10 06:23:40;;;;;;;10.90;5.00;;;;;;;6.35;100.00;100058.70;100694;1338;22864;-35
2022/10/10 06:26:05;;;;;;;5.40;3.80;;;;;;;6.43;100.00;100056.33;100789;1329;23226;-35
2022/10/10 06:28:31;;;;;;;19.60;8.70;;;;;;;6.54;100.00;100057.72;100860;1338;23907;-36
2022/10/10 06:30:59;;;;;;;8.60;5.70;;;;;;;6.65;100.00;100057.31;100838;1335;22738;-32
2022/10/10 06:33:25;;;;;;;7.50;4.70;;;;;;;6.75;100.00;100053.44;100816;1329;22971;-32
2022/10/10 06:35:51;;;;;;;7.10;4.20;;;;;;;6.85;100.00;100053.52;100781;1336;22926;-37
2022/10/10 06:38:17;;;;;;;7.50;4.70;;;;;;;6.95;100.00;100055.05;100790;1338;23250;-35
2022/10/10 06:40:42;;;;;;;6.40;4.40;;;;;;;7.08;100.00;100053.86;100769;1338;24530;-32
2022/10/10 06:43:10;;;;;;;6.10;4.00;;;;;;;7.20;100.00;100050.20;100810;1330;23237;-32
2022/10/10 06:45:38;;;;;;;6.90;3.80;;;;;;;7.39;100.00;100050.06;100803;1338;22749;-32
2022/10/10 06:48:03;;;;;;;5.80;4.30;;;;;;;7.61;100.00;100054.13;100841;1336;22517;-35
2022/10/10 06:50:29;;;;;;;8.50;4.30;;;;;;;7.83;100.00;100051.13;100735;1332;23001;-35
2022/10/10 06:52:55;;;;;;;6.90;3.90;;;;;;;8.03;100.00;100052.88;100736;1338;23215;-33
2022/10/10 06:55:20;;;;;;;15.50;5.90;;;;;;;8.25;100.00;100048.44;100850;1333;23224;-34
2022/10/10 06:57:46;;;;;;;7.80;4.60;;;;;;;8.48;100.00;100051.70;100819;1324;22891;-36
2022/10/10 07:00:12;;;;;;;11.90;4.60;;;;;;;8.66;100.00;100050.02;100821;1338;23273;-33
2022/10/10 07:02:39;;;;;;;7.00;4.50;;;;;;;8.84;99.94;100044.41;100811;1332;22524;-36
2022/10/10 07:05:08;;;;;;;14.60;4.80;;;;;;;9.05;98.96;100039.17;100837;1331;24485;-33
2022/10/10 07:07:34;;;;;;;6.60;3.90;;;;;;;9.24;97.30;100040.20;100830;1338;22507;-33
2022/10/10 07:10:00;;;;;;;19.40;6.60;;;;;;;9.39;95.10;100039.82;100786;1324;22767;-32
2022/10/10 07:12:26;;;;;;;8.70;4.10;;;;;;;9.53;93.39;100041.77;100813;1333;22521;-35
2022/10/10 07:14:52;;;;;;;8.20;4.20;;;;;;;9.77;93.86;100043.51;100748;1333;24314;-33
2022/10/10 07:17:17;;;;;;;9.80;3.80;;;;;;;9.95;92.98;100043.02;100769;1338;23002;-37
2022/10/10 07:19:43;;;;;;;10.70;3.20;;;;;;;10.19;91.31;100039.61;100750;1338;22523;-39
2022/10/10 07:22:09;;;;;;;8.00;3.40;;;;;;;10.39;91.86;100037.91;100822;1333;24350;-34
2022/10/10 07:24:35;;;;;;;4.00;2.80;;;;;;;10.55;89.72;100038.83;100784;1330;22877;-34
2022/10/10 07:27:02;;;;;;;3.80;2.90;;;;;;;10.69;88.19;100033.50;100834;1330;23117;-36
2022/10/10 07:29:29;;;;;;;5.50;2.60;;;;;;;10.84;86.80;100032.41;100833;1338;22589;-38
2022/10/10 07:31:55;;;;;;;12.40;2.70;;;;;;;10.91;84.61;100030.91;100818;1333;22986;-36
2022/10/10 07:34:20;;;;;;;6.40;3.20;;;;;;;11.08;85.82;100030.66;100834;1338;22745;-36
2022/10/10 07:36:49;;;;;;;9.90;3.60;;;;;;;11.21;83.67;100028.83;100767;1338;25233;-33
2022/10/10 07:39:19;;;;;;;7.20;3.20;;;;;;;11.34;82.34;100027.56;100771;1329;24282;-36
2022/10/10 07:41:44;;;;;;;9.40;4.00;;;;;;;11.45;81.00;100025.67;100772;1333;23116;-34
2022/10/10 07:44:10;;;;;;;14.10;4.60;;;;;;;11.65;81.32;100030.61;100817;1338;22502;-33
2022/10/10 07:46:35;;;;;;;6.30;3.30;;;;;;;11.80;81.03;100026.41;100776;1337;22453;-33
2022/10/10 07:49:01;;;;;;;11.60;3.50;;;;;;;11.94;80.80;100025.27;100774;1330;23245;-33
2022/10/10 07:51:27;;;;;;;6.60;2.40;;;;;;;12.08;79.73;100022.73;100853;1332;22503;-34
2022/10/10 07:53:52;;;;;;;6.40;3.00;;;;;;;12.24;77.63;100014.19;100747;1330;23229;-37
2022/10/10 07:56:18;;;;;;;9.40;2.50;;;;;;;12.23;76.73;100019.25;100854;1333;22745;-37
2022/10/10 07:58:43;;;;;;;5.70;3.10;;;;;;;12.37;76.99;100017.55;100784;1333;22830;-35
2022/10/10 08:01:10;;;;;;;6.10;2.30;;;;;;;12.57;76.97;100016.23;100820;1333;22823;-34
2022/10/10 08:03:36;;;;;;;4.40;2.10;;;;;;;12.77;77.47;100014.07;100738;1338;24370;-37
2022/10/10 08:06:04;;;;;;;7.50;3.30;;;;;;;13.00;76.92;100009.42;100867;1338;23090;-37
2022/10/10 08:08:29;;;;;;;11.80;3.50;;;;;;;13.24;76.00;100007.18;100758;1330;24551;-34
2022/10/10 08:10:56;;;;;;;6.70;2.50;;;;;;;13.41;74.55;100002.47;100761;1338;23215;-37
2022/10/10 08:13:22;;;;;;;3.40;1.60;;;;;;;13.57;73.30;100005.17;100739;1338;23245;-34
2022/10/10 08:15:50;;;;;;;19.00;3.50;;;;;;;13.73;73.29;100002.70;100795;1338;24269;-37
2022/10/10 08:18:15;;;;;;;5.60;2.80;;;;;;;13.93;72.73;99999.67;100808;1330;24580;-35
2022/10/10 08:20:41;;;;;;;5.10;3.20;;;;;;;14.04;70.76;99997.51;100755;1333;23239;-35
2022/10/10 08:23:06;;;;;;;3.00;2.10;;;;;;;14.18;71.35;99995.66;100745;1338;22754;-34
2022/10/10 08:25:32;;;;;;;5.90;4.10;;;;;;;14.36;71.40;99998.23;100741;1339;23101;-36
2022/10/10 08:27:58;;;;;;;6.30;3.60;;;;;;;14.56;70.90;99997.46;100822;1338;24879;-37
2022/10/10 08:30:23;;;;;;;3.90;1.80;;;;;;;14.84;70.57;99990.73;100813;1328;24494;-37
2022/10/10 08:32:49;;;;;;;4.30;2.20;;;;;;;15.03;68.85;99989.36;100766;1338;23114;-35
2022/10/10 08:35:15;;;;;;;8.10;2.30;;;;;;;15.24;67.64;99991.35;100785;1331;24537;-37
2022/10/10 08:37:40;;;;;;;5.80;1.90;;;;;;;15.42;68.00;99988.51;100755;1330;23027;-35
2022/10/10 08:40:07;;;;;;;4.60;2.80;;;;;;;15.64;67.13;99985.39;100702;1331;23773;-35
2022/10/10 08:42:36;;;;;;;5.40;3.20;;;;;;;15.91;66.43;99987.56;100832;1327;23192;-39
2022/10/10 08:45:04;;;;;;;6.50;1.40;;;;;;;16.04;64.18;99985.62;100779;1339;22732;-36
2022/10/10 08:47:38;;;;;;;3.30;1.90;;;;;;;16.12;63.89;99986.73;100845;1338;22493;-36
2022/10/10 08:50:05;;;;;;;7.00;2.30;;;;;;;16.17;64.08;99982.81;100817;1338;26643;-34
2022/10/10 08:52:35;;;;;;;3.80;1.90;;;;;;;16.37;63.08;99981.39;100786;1339;22498;-35
2022/10/10 08:55:01;;;;;;;3.50;2.10;;;;;;;16.43;62.85;99982.05;100748;1338;22513;-37
2022/10/10 08:57:34;;;;;;;3.20;2.30;;;;;;;16.62;61.46;99981.94;100814;1337;23216;-35
2022/10/10 09:00:05;;;;;;;5.40;2.20;;;;;;;16.86;61.35;99976.41;100724;1338;23216;-35
2022/10/10 09:02:35;;;;;;;9.50;3.10;;;;;;;16.91;59.61;99978.35;100775;1333;24763;-35
2022/10/10 09:05:00;;;;;;;6.70;2.00;;;;;;;16.95;59.80;99974.60;100779;1333;25602;-37
2022/10/10 09:07:31;;;;;;;9.60;2.60;;;;;;;17.06;58.73;99973.95;100765;1338;22749;-37
2022/10/10 09:10:02;;;;;;;4.30;1.90;;;;;;;17.02;58.19;99970.20;100798;1330;22980;-34
2022/10/10 09:12:52;;;;;;;5.70;2.20;;;;;;;17.19;58.04;99962.62;100804;1323;22566;-38
2022/10/10 09:15:20;;;;;;;3.40;2.40;;;;;;;17.26;57.76;99960.16;100838;1337;22536;-38
2022/10/10 09:17:50;;;;;;;2.50;1.80;;;;;;;17.44;58.22;99962.11;100737;1323;22761;-34
2022/10/10 09:20:23;;;;;;;3.10;2.30;;;;;;;17.54;57.73;99958.40;100841;1338;22532;-36
2022/10/10 09:22:53;;;;;;;2.50;1.70;;;;;;;17.73;56.23;99956.45;100728;1338;24357;-36
2022/10/10 09:25:23;;;;;;;3.90;1.70;;;;;;;17.63;55.30;99956.02;100803;1332;24486;-36
2022/10/10 09:27:55;;;;;;;4.10;1.60;;;;;;;17.62;55.38;99951.64;100760;1338;24380;-36
2022/10/10 09:30:21;;;;;;;3.40;3.00;;;;;;;17.69;54.56;99947.75;100830;1312;22676;-36
2022/10/10 09:32:49;;;;;;;4.80;2.70;;;;;;;17.69;55.29;99948.80;100724;1334;22499;-39
2022/10/10 09:35:20;;;;;;;3.70;2.40;;;;;;;17.93;55.41;99946.33;100754;1333;25365;-38
2022/10/10 09:37:48;;;;;;;2.90;2.50;;;;;;;18.06;54.94;99939.48;100719;1337;22758;-40
2022/10/10 09:40:18;;;;;;;5.50;2.20;;;;;;;18.18;54.34;99941.14;100825;1338;22746;-38
2022/10/10 09:42:44;;;;;;;4.20;1.70;;;;;;;18.23;55.05;99941.05;100776;1333;22786;-37
2022/10/10 09:45:16;;;;;;;3.10;2.70;;;;;;;18.43;54.54;99935.66;100764;1333;23064;-35
2022/10/10 09:47:41;;;;;;;4.30;2.60;;;;;;;18.73;53.60;99938.91;100699;1338;24351;-37
2022/10/10 09:50:11;;;;;;;9.50;3.60;;;;;;;18.65;52.59;99934.45;100827;1333;24263;-37
2022/10/10 09:52:37;;;;;;;2.80;2.40;;;;;;;18.77;52.22;99931.80;100763;1338;22750;-37
2022/10/10 09:55:06;;;;;;;7.20;3.40;;;;;;;18.77;52.70;99931.05;100738;1333;24883;-37
2022/10/10 09:57:34;;;;;;;4.50;2.80;;;;;;;19.02;52.36;99923.63;100745;1332;23119;-35
2022/10/10 10:00:06;;;;;;;3.30;2.30;;;;;;;19.19;51.73;99927.58;100822;1338;22653;-36
2022/10/10 10:02:32;;;;;;;2.20;1.60;;;;;;;19.26;50.83;99923.46;100773;1338;22621;-37
2022/10/10 10:04:59;;;;;;;4.50;2.90;;;;;;;19.26;51.18;99915.61;100819;1338;22738;-35
2022/10/10 10:07:30;;;;;;;4.60;1.80;;;;;;;19.36;50.58;99917.89;100829;1331;24351;-36
2022/10/10 10:09:58;;;;;;;5.50;1.70;;;;;;;19.41;49.55;99919.84;100748;1333;22760;-37
2022/10/10 10:12:27;;;;;;;13.60;3.00;;;;;;;19.49;49.23;99916.19;100773;1338;22744;-38
2022/10/10 10:14:58;;;;;;;7.30;2.40;;;;;;;19.43;48.66;99917.48;100813;1337;23348;-34
2022/10/10 10:17:23;;;;;;;2.50;2.00;;;;;;;19.56;48.62;99919.27;100783;1328;25720;-34
2022/10/10 10:19:49;;;;;;;3.00;2.50;;;;;;;19.74;48.70;99910.71;100795;1326;24868;-35
2022/10/10 10:22:22;;;;;;;3.70;2.60;;;;;;;19.89;48.38;99912.89;100728;1338;24399;-39
2022/10/10 10:24:47;;;;;;;1.70;1.50;;;;;;;19.93;47.58;99905.20;100873;1323;22517;-35
2022/10/10 10:27:16;;;;;;;4.60;2.40;;;;;;;20.06;47.16;99904.52;100773;1338;22761;-37
2022/10/10 10:29:46;;;;;;;4.40;2.40;;;;;;;20.11;47.49;99902.09;100821;1330;23233;-34
2022/10/10 10:32:13;;;;;;;3.40;2.00;;;;;;;20.28;47.59;99908.06;100787;1338;24366;-37
2022/10/10 10:34:48;;;;;;;5.70;2.90;;;;;;;20.63;47.26;99904.27;100780;1331;23054;-34
2022/10/10 10:37:17;;;;;;;2.90;2.50;;;;;;;20.87;46.57;99898.53;100789;1330;23103;-37
2022/10/10 10:39:48;;;;;;;11.80;2.60;;;;;;;20.78;45.16;99891.54;100809;1338;22876;-37
2022/10/10 10:42:19;;;;;;;1.90;1.60;;;;;;;20.76;45.30;99891.95;100750;1333;22752;-34
2022/10/10 10:44:49;;;;;;;3.10;2.20;;;;;;;20.79;45.36;99889.75;100717;1338;22742;-35
2022/10/10 10:47:20;;;;;;;7.90;2.40;;;;;;;21.08;45.22;99888.17;100792;1338;23925;-34
2022/10/10 10:49:52;;;;;;;2.80;1.40;;;;;;;21.09;44.64;99878.14;100817;1338;23215;-38
2022/10/10 10:52:27;;;;;;;7.00;2.90;;;;;;;20.93;44.36;99878.96;100758;1338;24380;-35
2022/10/10 10:54:58;;;;;;;3.00;2.70;;;;;;;21.04;44.29;99873.86;100831;1338;25297;-35
2022/10/10 10:57:31;;;;;;;5.30;2.30;;;;;;;21.13;44.71;99872.71;100737;1338;22888;-37
2022/10/10 11:00:04;;;;;;;6.30;2.10;;;;;;;21.10;44.16;99865.14;100694;1334;22511;-35
2022/10/10 11:02:37;;;;;;;6.70;1.80;;;;;;;20.98;44.51;99866.09;100787;1330;22513;-34
2022/10/10 11:05:09;;;;;;;2.90;1.90;;;;;;;21.03;44.82;99859.10;100803;1333;23257;-35
2022/10/10 11:07:41;;;;;;;1.90;1.70;;;;;;;21.01;44.75;99856.67;100740;1336;25333;-37
2022/10/10 11:10:13;;;;;;;2.80;1.50;;;;;;;21.09;44.61;99849.07;100777;1336;24379;-37
2022/10/10 11:12:43;;;;;;;;;;;;;;;21.38;44.45;99851.66;100774;1338;22482;-35
2022/10/10 11:15:14;;;;;;;4.40;2.10;;;;;;;21.44;43.85;99852.77;100778;1330;22759;-36